sensor_id;sensor_type;location;lat;lon;timestamp;pressure;altitude;pressure_sealevel;temperature;humidity
36692;BME280;22678;52.052;4.242;2023-11-21T00:00:21;101126.94;;;9.46;100.00
36692;BME280;22678;52.052;4.242;2023-11-21T00:02:46;101124.31;;;9.46;100.00
36692;BME280;22678;52.052;4.242;2023-11-21T00:05:13;101127.81;;;9.48;100.00
36692;BME280;22678;52.052;4.242;2023-11-21T00:07:42;101128.69;;;9.53;100.00
36692;BME280;22678;52.052;4.242;2023-11-21T00:10:08;101124.31;;;9.49;100.00
36692;BME280;22678;52.052;4.242;2023-11-21T00:12:35;101138.34;;;9.57;100.00
36692;BME280;22678;52.052;4.242;2023-11-21T00:15:00;101138.34;;;9.57;100.00
36692;BME280;22678;52.052;4.242;2023-11-21T00:17:26;101145.34;;;9.61;100.00
36692;BME280;22678;52.052;4.242;2023-11-21T00:19:52;101142.72;;;9.63;100.00
36692;BME280;22678;52.052;4.242;2023-11-21T00:22:18;101129.56;;;9.55;100.00
36692;BME280;22678;52.052;4.242;2023-11-21T00:24:43;101129.59;;;9.61;100.00
36692;BME280;22678;52.052;4.242;2023-11-21T00:27:09;101133.94;;;9.62;100.00
36692;BME280;22678;52.052;4.242;2023-11-21T00:29:34;101125.22;;;9.56;100.00
36692;BME280;22678;52.052;4.242;2023-11-21T00:31:59;101140.97;;;9.65;100.00
36692;BME280;22678;52.052;4.242;2023-11-21T00:34:25;101113.81;;;9.52;100.00
36692;BME280;22678;52.052;4.242;2023-11-21T00:36:50;101141.81;;;9.62;100.00
36692;BME280;22678;52.052;4.242;2023-11-21T00:39:15;101136.56;;;9.69;100.00
36692;BME280;22678;52.052;4.242;2023-11-21T00:41:41;101131.31;;;9.69;100.00
36692;BME280;22678;52.052;4.242;2023-11-21T01:04:18;101161.06;;;9.55;100.00
36692;BME280;22678;52.052;4.242;2023-11-21T01:06:43;101163.69;;;9.54;100.00
36692;BME280;22678;52.052;4.242;2023-11-21T01:09:09;101167.22;;;9.56;100.00
36692;BME280;22678;52.052;4.242;2023-11-21T01:11:35;101169.84;;;9.57;100.00
36692;BME280;22678;52.052;4.242;2023-11-21T01:14:03;101168.94;;;9.55;100.00
36692;BME280;22678;52.052;4.242;2023-11-21T01:16:28;101169.84;;;9.59;100.00
36692;BME280;22678;52.052;4.242;2023-11-21T01:18:54;101173.34;;;9.59;100.00
36692;BME280;22678;52.052;4.242;2023-11-21T01:21:19;101167.22;;;9.53;100.00
36692;BME280;22678;52.052;4.242;2023-11-21T01:23:44;101189.09;;;9.61;100.00
36692;BME280;22678;52.052;4.242;2023-11-21T01:26:10;101181.22;;;9.59;100.00
36692;BME280;22678;52.052;4.242;2023-11-21T01:28:35;101188.22;;;9.62;100.00
36692;BME280;22678;52.052;4.242;2023-11-21T01:31:00;101190.00;;;9.66;100.00
36692;BME280;22678;52.052;4.242;2023-11-21T01:33:26;101189.09;;;9.65;100.00
36692;BME280;22678;52.052;4.242;2023-11-21T01:35:51;101196.09;;;9.67;100.00
36692;BME280;22678;52.052;4.242;2023-11-21T01:38:20;101193.47;;;9.63;100.00
36692;BME280;22678;52.052;4.242;2023-11-21T01:40:45;101203.97;;;9.68;100.00
36692;BME280;22678;52.052;4.242;2023-11-21T01:43:11;101184.75;;;9.61;100.00
36692;BME280;22678;52.052;4.242;2023-11-21T01:45:36;101182.97;;;9.57;100.00
36692;BME280;22678;52.052;4.242;2023-11-21T01:48:03;101203.97;;;9.67;100.00
36692;BME280;22678;52.052;4.242;2023-11-21T01:50:29;101207.47;;;9.67;100.00
36692;BME280;22678;52.052;4.242;2023-11-21T01:52:54;101206.59;;;9.60;100.00
36692;BME280;22678;52.052;4.242;2023-11-21T01:55:20;101211.84;;;9.60;100.00
36692;BME280;22678;52.052;4.242;2023-11-21T01:57:46;101213.63;;;9.64;100.00
36692;BME280;22678;52.052;4.242;2023-11-21T02:00:13;101216.25;;;9.61;100.00
36692;BME280;22678;52.052;4.242;2023-11-21T02:02:51;101213.59;;;9.58;100.00
36692;BME280;22678;52.052;4.242;2023-11-21T02:05:17;101224.13;;;9.61;100.00
36692;BME280;22678;52.052;4.242;2023-11-21T02:07:49;101226.75;;;9.63;100.00
36692;BME280;22678;52.052;4.242;2023-11-21T02:10:15;101213.59;;;9.55;100.00
36692;BME280;22678;52.052;4.242;2023-11-21T02:12:41;101224.13;;;9.60;100.00
36692;BME280;22678;52.052;4.242;2023-11-21T02:15:08;101225.84;;;9.56;100.00
36692;BME280;22678;52.052;4.242;2023-11-21T02:17:41;101218.84;;;9.55;100.00
36692;BME280;22678;52.052;4.242;2023-11-21T02:20:12;101236.34;;;9.56;100.00
36692;BME280;22678;52.052;4.242;2023-11-21T02:22:41;101238.13;;;9.57;100.00
36692;BME280;22678;52.052;4.242;2023-11-21T02:25:08;101223.22;;;9.52;100.00
36692;BME280;22678;52.052;4.242;2023-11-21T02:27:33;101240.75;;;9.57;100.00
36692;BME280;22678;52.052;4.242;2023-11-21T02:29:59;101224.06;;;9.46;100.00
36692;BME280;22678;52.052;4.242;2023-11-21T02:32:26;101230.22;;;9.57;100.00
36692;BME280;22678;52.052;4.242;2023-11-21T02:34:51;101219.69;;;9.46;100.00
36692;BME280;22678;52.052;4.242;2023-11-21T02:37:16;101232.84;;;9.51;100.00
36692;BME280;22678;52.052;4.242;2023-11-21T02:39:42;101229.34;;;9.54;100.00
36692;BME280;22678;52.052;4.242;2023-11-21T02:42:07;101239.84;;;9.55;100.00
36692;BME280;22678;52.052;4.242;2023-11-21T02:44:33;101232.84;;;9.54;100.00
36692;BME280;22678;52.052;4.242;2023-11-21T02:46:58;101232.88;;;9.57;100.00
36692;BME280;22678;52.052;4.242;2023-11-21T02:49:25;101247.72;;;9.57;100.00
36692;BME280;22678;52.052;4.242;2023-11-21T02:51:53;101244.22;;;9.55;100.00
36692;BME280;22678;52.052;4.242;2023-11-21T02:54:20;101240.72;;;9.50;100.00
36692;BME280;22678;52.052;4.242;2023-11-21T02:56:47;101232.81;;;9.42;100.00
36692;BME280;22678;52.052;4.242;2023-11-21T02:59:12;101246.84;;;9.49;100.00
36692;BME280;22678;52.052;4.242;2023-11-21T03:01:37;101238.97;;;9.44;100.00
36692;BME280;22678;52.052;4.242;2023-11-21T03:04:03;101235.44;;;9.42;100.00
36692;BME280;22678;52.052;4.242;2023-11-21T03:06:28;101245.94;;;9.46;100.00
36692;BME280;22678;52.052;4.242;2023-11-21T03:08:54;101238.97;;;9.44;100.00
36692;BME280;22678;52.052;4.242;2023-11-21T03:11:19;101238.06;;;9.42;100.00
36692;BME280;22678;52.052;4.242;2023-11-21T03:13:44;101237.19;;;9.40;100.00
36692;BME280;22678;52.052;4.242;2023-11-21T03:16:10;101248.56;;;9.42;100.00
36692;BME280;22678;52.052;4.242;2023-11-21T03:18:39;101245.06;;;9.37;100.00
36692;BME280;22678;52.052;4.242;2023-11-21T03:21:05;101253.81;;;9.42;100.00
36692;BME280;22678;52.052;4.242;2023-11-21T03:23:32;101256.44;;;9.42;100.00
36692;BME280;22678;52.052;4.242;2023-11-21T03:25:58;101278.34;;;9.47;100.00
36692;BME280;22678;52.052;4.242;2023-11-21T03:28:25;101271.31;;;9.43;100.00
36692;BME280;22678;52.052;4.242;2023-11-21T03:30:50;101267.81;;;9.42;100.00
36692;BME280;22678;52.052;4.242;2023-11-21T03:33:15;101250.31;;;9.37;100.00
36692;BME280;22678;52.052;4.242;2023-11-21T03:35:41;101273.09;;;9.47;100.00
36692;BME280;22678;52.052;4.242;2023-11-21T03:38:07;101279.22;;;9.51;100.00
36692;BME280;22678;52.052;4.242;2023-11-21T03:40:32;101267.84;;;9.47;100.00
36692;BME280;22678;52.052;4.242;2023-11-21T03:42:58;101292.34;;;9.55;100.00
36692;BME280;22678;52.052;4.242;2023-11-21T03:45:23;101275.72;;;9.49;100.00
36692;BME280;22678;52.052;4.242;2023-11-21T03:47:49;101285.38;;;9.54;100.00
36692;BME280;22678;52.052;4.242;2023-11-21T03:50:15;101292.41;;;9.61;100.00
36692;BME280;22678;52.052;4.242;2023-11-21T03:52:40;101295.88;;;9.63;100.00
36692;BME280;22678;52.052;4.242;2023-11-21T03:55:06;101285.38;;;9.60;100.00
36692;BME280;22678;52.052;4.242;2023-11-21T03:57:31;101301.16;;;9.70;100.00
36692;BME280;22678;52.052;4.242;2023-11-21T03:59:56;101301.16;;;9.74;100.00
36692;BME280;22678;52.052;4.242;2023-11-21T04:02:22;101315.19;;;9.81;100.00
36692;BME280;22678;52.052;4.242;2023-11-21T04:04:47;101310.81;;;9.81;100.00
36692;BME280;22678;52.052;4.242;2023-11-21T04:07:13;101311.72;;;9.87;100.00
36692;BME280;22678;52.052;4.242;2023-11-21T04:09:39;101304.69;;;9.84;100.00
36692;BME280;22678;52.052;4.242;2023-11-21T04:12:04;101314.34;;;9.88;100.00
36692;BME280;22678;52.052;4.242;2023-11-21T04:14:30;101306.47;;;9.85;100.00
36692;BME280;22678;52.052;4.242;2023-11-21T04:16:55;101310.81;;;9.88;100.00
36692;BME280;22678;52.052;4.242;2023-11-21T04:19:20;101330.97;;;9.96;100.00
36692;BME280;22678;52.052;4.242;2023-11-21T04:21:46;101320.47;;;9.96;100.00
36692;BME280;22678;52.052;4.242;2023-11-21T04:24:11;101302.94;;;9.89;100.00
36692;BME280;22678;52.052;4.242;2023-11-21T04:26:36;101327.50;;;9.97;100.00
36692;BME280;22678;52.052;4.242;2023-11-21T04:29:02;101327.50;;;9.97;100.00
36692;BME280;22678;52.052;4.242;2023-11-21T04:31:27;101323.09;;;9.95;100.00
36692;BME280;22678;52.052;4.242;2023-11-21T04:33:53;101329.25;;;9.98;100.00
36692;BME280;22678;52.052;4.242;2023-11-21T04:36:18;101331.88;;;9.95;100.00
36692;BME280;22678;52.052;4.242;2023-11-21T04:38:45;101343.25;;;9.97;100.00
36692;BME280;22678;52.052;4.242;2023-11-21T04:41:11;101339.75;;;9.94;100.00
36692;BME280;22678;52.052;4.242;2023-11-21T04:43:37;101331.84;;;9.88;100.00
36692;BME280;22678;52.052;4.242;2023-11-21T04:46:02;101350.28;;;9.95;100.00
36692;BME280;22678;52.052;4.242;2023-11-21T04:48:27;101357.25;;;9.98;100.00
36692;BME280;22678;52.052;4.242;2023-11-21T04:50:53;101359.00;;;9.94;100.00
36692;BME280;22678;52.052;4.242;2023-11-21T04:53:18;101367.75;;;9.93;100.00
36692;BME280;22678;52.052;4.242;2023-11-21T04:55:43;101367.75;;;9.93;100.00
36692;BME280;22678;52.052;4.242;2023-11-21T04:58:09;101368.63;;;9.88;100.00
36692;BME280;22678;52.052;4.242;2023-11-21T05:00:34;101372.13;;;9.85;100.00
36692;BME280;22678;52.052;4.242;2023-11-21T05:03:02;101381.75;;;9.86;100.00
36692;BME280;22678;52.052;4.242;2023-11-21T05:05:27;101378.25;;;9.86;100.00
36692;BME280;22678;52.052;4.242;2023-11-21T05:07:52;101395.78;;;9.90;100.00
36692;BME280;22678;52.052;4.242;2023-11-21T05:10:19;101397.50;;;9.89;100.00
36692;BME280;22678;52.052;4.242;2023-11-21T05:12:44;101395.78;;;9.85;100.00
36692;BME280;22678;52.052;4.242;2023-11-21T05:15:13;101392.22;;;9.80;100.00
36692;BME280;22678;52.052;4.242;2023-11-21T05:17:39;101404.50;;;9.78;100.00
36692;BME280;22678;52.052;4.242;2023-11-21T05:20:10;101396.59;;;9.72;100.00
36692;BME280;22678;52.052;4.242;2023-11-21T05:22:36;101419.38;;;9.79;100.00
36692;BME280;22678;52.052;4.242;2023-11-21T05:25:02;101421.09;;;9.71;100.00
36692;BME280;22678;52.052;4.242;2023-11-21T05:27:29;101413.22;;;9.68;100.00
36692;BME280;22678;52.052;4.242;2023-11-21T05:29:56;101416.69;;;9.63;100.00
36692;BME280;22678;52.052;4.242;2023-11-21T05:32:21;101439.47;;;9.71;100.00
36692;BME280;22678;52.052;4.242;2023-11-21T05:34:47;101429.81;;;9.67;100.00
36692;BME280;22678;52.052;4.242;2023-11-21T05:37:13;101442.13;;;9.72;100.00
36692;BME280;22678;52.052;4.242;2023-11-21T05:39:38;101425.44;;;9.69;100.00
36692;BME280;22678;52.052;4.242;2023-11-21T05:42:03;101436.00;;;9.72;100.00
36692;BME280;22678;52.052;4.242;2023-11-21T05:44:29;101452.66;;;9.78;100.00
36692;BME280;22678;52.052;4.242;2023-11-21T05:46:55;101443.91;;;9.78;100.00
36692;BME280;22678;52.052;4.242;2023-11-21T05:49:20;101452.66;;;9.81;100.00
36692;BME280;22678;52.052;4.242;2023-11-21T05:51:48;101459.69;;;9.82;100.00
36692;BME280;22678;52.052;4.242;2023-11-21T05:54:13;101462.31;;;9.84;100.00
36692;BME280;22678;52.052;4.242;2023-11-21T05:56:39;101444.75;;;9.74;100.00
36692;BME280;22678;52.052;4.242;2023-11-21T05:59:04;101457.91;;;9.80;100.00
36692;BME280;22678;52.052;4.242;2023-11-21T06:01:29;101470.19;;;9.86;100.00
36692;BME280;22678;52.052;4.242;2023-11-21T06:03:55;101459.66;;;9.81;100.00
36692;BME280;22678;52.052;4.242;2023-11-21T06:06:21;101460.53;;;9.77;100.00
36692;BME280;22678;52.052;4.242;2023-11-21T06:08:48;101477.19;;;9.80;100.00
36692;BME280;22678;52.052;4.242;2023-11-21T06:11:14;101485.94;;;9.79;100.00
36692;BME280;22678;52.052;4.242;2023-11-21T06:13:39;101485.91;;;9.73;100.00
36692;BME280;22678;52.052;4.242;2023-11-21T06:16:05;101471.81;;;9.62;100.00
36692;BME280;22678;52.052;4.242;2023-11-21T06:18:30;101484.94;;;9.60;100.00
36692;BME280;22678;52.052;4.242;2023-11-21T06:20:56;101483.13;;;9.50;100.00
36692;BME280;22678;52.052;4.242;2023-11-21T06:23:21;101500.69;;;9.57;100.00
36692;BME280;22678;52.052;4.242;2023-11-21T06:25:46;101486.59;;;9.46;100.00
36692;BME280;22678;52.052;4.242;2023-11-21T06:28:12;101493.63;;;9.52;100.00
36692;BME280;22678;52.052;4.242;2023-11-21T06:30:37;101496.25;;;9.50;100.00
36692;BME280;22678;52.052;4.242;2023-11-21T06:33:03;101500.66;;;9.51;100.00
36692;BME280;22678;52.052;4.242;2023-11-21T06:35:28;101514.63;;;9.50;100.00
36692;BME280;22678;52.052;4.242;2023-11-21T06:37:55;101519.88;;;9.50;100.00
36692;BME280;22678;52.052;4.242;2023-11-21T06:40:20;101509.34;;;9.44;100.00
36692;BME280;22678;52.052;4.242;2023-11-21T06:42:46;101518.13;;;9.49;100.00
36692;BME280;22678;52.052;4.242;2023-11-21T06:45:12;101516.41;;;9.54;100.00
36692;BME280;22678;52.052;4.242;2023-11-21T06:47:38;101524.31;;;9.59;100.00
36692;BME280;22678;52.052;4.242;2023-11-21T06:50:04;101530.44;;;9.59;100.00
36692;BME280;22678;52.052;4.242;2023-11-21T06:52:29;101528.72;;;9.60;100.00
36692;BME280;22678;52.052;4.242;2023-11-21T06:54:55;101545.38;;;9.67;100.00
36692;BME280;22678;52.052;4.242;2023-11-21T06:57:22;101546.25;;;9.65;100.00
36692;BME280;22678;52.052;4.242;2023-11-21T06:59:47;101553.25;;;9.67;100.00
36692;BME280;22678;52.052;4.242;2023-11-21T07:02:13;101543.53;;;9.55;100.00
36692;BME280;22678;52.052;4.242;2023-11-21T07:04:39;101558.50;;;9.65;100.00
36692;BME280;22678;52.052;4.242;2023-11-21T07:07:06;101568.16;;;9.68;100.00
36692;BME280;22678;52.052;4.242;2023-11-21T07:09:34;101564.63;;;9.64;100.00
36692;BME280;22678;52.052;4.242;2023-11-21T07:12:00;101561.09;;;9.59;100.00
36692;BME280;22678;52.052;4.242;2023-11-21T07:14:26;101572.50;;;9.65;100.00
36692;BME280;22678;52.052;4.242;2023-11-21T07:16:51;101585.66;;;9.67;100.00
36692;BME280;22678;52.052;4.242;2023-11-21T07:19:17;101583.91;;;9.66;100.00
36692;BME280;22678;52.052;4.242;2023-11-21T07:21:43;101582.13;;;9.65;100.00
36692;BME280;22678;52.052;4.242;2023-11-21T07:24:08;101593.53;;;9.69;100.00
36692;BME280;22678;52.052;4.242;2023-11-21T07:26:34;101594.41;;;9.68;100.00
36692;BME280;22678;52.052;4.242;2023-11-21T07:29:00;101601.41;;;9.69;100.00
36692;BME280;22678;52.052;4.242;2023-11-21T07:31:26;101593.53;;;9.69;100.00
36692;BME280;22678;52.052;4.242;2023-11-21T07:33:52;101608.47;;;9.74;100.00
36692;BME280;22678;52.052;4.242;2023-11-21T07:36:19;101608.47;;;9.77;100.00
36692;BME280;22678;52.052;4.242;2023-11-21T07:38:46;101609.34;;;9.75;100.00
36692;BME280;22678;52.052;4.242;2023-11-21T07:41:11;101612.88;;;9.77;100.00
36692;BME280;22678;52.052;4.242;2023-11-21T07:43:40;101618.13;;;9.80;100.00
36692;BME280;22678;52.052;4.242;2023-11-21T07:46:06;101623.41;;;9.81;100.00
36692;BME280;22678;52.052;4.242;2023-11-21T07:48:32;101628.69;;;9.86;100.00
36692;BME280;22678;52.052;4.242;2023-11-21T07:50:57;101627.81;;;9.86;100.00
36692;BME280;22678;52.052;4.242;2023-11-21T07:53:26;101636.59;;;9.91;100.00
36692;BME280;22678;52.052;4.242;2023-11-21T07:55:54;101640.16;;;9.94;100.00
36692;BME280;22678;52.052;4.242;2023-11-21T07:58:19;101640.16;;;9.96;100.00
36692;BME280;22678;52.052;4.242;2023-11-21T08:00:45;101653.31;;;10.00;100.00
36692;BME280;22678;52.052;4.242;2023-11-21T08:03:10;101646.31;;;10.01;100.00
36692;BME280;22678;52.052;4.242;2023-11-21T08:05:36;101651.63;;;10.09;100.00
36692;BME280;22678;52.052;4.242;2023-11-21T08:08:02;101649.91;;;10.14;100.00
36692;BME280;22678;52.052;4.242;2023-11-21T08:10:27;101655.19;;;10.17;100.00
36692;BME280;22678;52.052;4.242;2023-11-21T08:12:52;101644.66;;;10.15;100.00
36692;BME280;22678;52.052;4.242;2023-11-21T08:15:18;101671.03;;;10.26;100.00
36692;BME280;22678;52.052;4.242;2023-11-21T08:17:44;101647.38;;;10.25;100.00
36692;BME280;22678;52.052;4.242;2023-11-21T08:20:10;101644.75;;;10.26;100.00
36692;BME280;22678;52.052;4.242;2023-11-21T08:22:36;101654.38;;;10.30;100.00
36692;BME280;22678;52.052;4.242;2023-11-21T08:25:01;101667.66;;;10.43;100.00
36692;BME280;22678;52.052;4.242;2023-11-21T08:27:29;101659.75;;;10.43;100.00
36692;BME280;22678;52.052;4.242;2023-11-21T08:29:54;101669.44;;;10.50;100.00
36692;BME280;22678;52.052;4.242;2023-11-21T08:32:21;101673.88;;;10.56;100.00
36692;BME280;22678;52.052;4.242;2023-11-21T08:34:47;101665.97;;;10.54;100.00
36692;BME280;22678;52.052;4.242;2023-11-21T08:37:16;101670.34;;;10.57;100.00
36692;BME280;22678;52.052;4.242;2023-11-21T08:39:41;101680.88;;;10.60;100.00
36692;BME280;22678;52.052;4.242;2023-11-21T08:42:07;101681.75;;;10.57;100.00
36692;BME280;22678;52.052;4.242;2023-11-21T08:44:33;101681.75;;;10.57;100.00
36692;BME280;22678;52.052;4.242;2023-11-21T08:46:58;101687.91;;;10.64;100.00
36692;BME280;22678;52.052;4.242;2023-11-21T08:49:24;101683.56;;;10.66;100.00
36692;BME280;22678;52.052;4.242;2023-11-21T08:51:51;101690.56;;;10.68;100.00
36692;BME280;22678;52.052;4.242;2023-11-21T08:54:16;101694.09;;;10.71;100.00
36692;BME280;22678;52.052;4.242;2023-11-21T08:56:43;101711.69;;;10.78;100.00
36692;BME280;22678;52.052;4.242;2023-11-21T08:59:08;101716.06;;;10.80;100.00
36692;BME280;22678;52.052;4.242;2023-11-21T09:01:34;101703.78;;;10.79;100.00
36692;BME280;22678;52.052;4.242;2023-11-21T09:03:59;101717.84;;;10.84;100.00
36692;BME280;22678;52.052;4.242;2023-11-21T09:06:24;101710.78;;;10.80;100.00
36692;BME280;22678;52.052;4.242;2023-11-21T09:08:50;101719.59;;;10.82;100.00
36692;BME280;22678;52.052;4.242;2023-11-21T09:11:16;101713.44;;;10.85;100.00
36692;BME280;22678;52.052;4.242;2023-11-21T09:13:41;101714.31;;;10.78;100.00
36692;BME280;22678;52.052;4.242;2023-11-21T09:16:07;101720.44;;;10.80;100.00
36692;BME280;22678;52.052;4.242;2023-11-21T09:18:32;101709.00;;;10.72;100.00
36692;BME280;22678;52.052;4.242;2023-11-21T09:20:57;101723.09;;;10.81;100.00
36692;BME280;22678;52.052;4.242;2023-11-21T09:23:24;101740.66;;;10.89;100.00
36692;BME280;22678;52.052;4.242;2023-11-21T09:25:49;101727.50;;;10.89;100.00
36692;BME280;22678;52.052;4.242;2023-11-21T09:28:15;101743.31;;;10.93;100.00
36692;BME280;22678;52.052;4.242;2023-11-21T09:30:40;101757.34;;;10.95;100.00
36692;BME280;22678;52.052;4.242;2023-11-21T09:33:06;101763.53;;;11.02;100.00
36692;BME280;22678;52.052;4.242;2023-11-21T09:35:32;101765.28;;;11.00;100.00
36692;BME280;22678;52.052;4.242;2023-11-21T09:37:57;101781.09;;;11.04;100.00
36692;BME280;22678;52.052;4.242;2023-11-21T09:40:22;101774.94;;;11.02;100.00
36692;BME280;22678;52.052;4.242;2023-11-21T09:42:55;101796.91;;;11.11;100.00
36692;BME280;22678;52.052;4.242;2023-11-21T09:45:26;101786.34;;;11.03;100.00
36692;BME280;22678;52.052;4.242;2023-11-21T09:47:57;101809.22;;;11.12;100.00
36692;BME280;22678;52.052;4.242;2023-11-21T09:50:23;101803.94;;;11.07;100.00
36692;BME280;22678;52.052;4.242;2023-11-21T09:52:57;101819.75;;;11.12;100.00
36692;BME280;22678;52.052;4.242;2023-11-21T09:55:26;101814.47;;;11.10;100.00
36692;BME280;22678;52.052;4.242;2023-11-21T09:57:53;101823.22;;;11.09;100.00
36692;BME280;22678;52.052;4.242;2023-11-21T10:00:20;101820.56;;;11.01;100.00
36692;BME280;22678;52.052;4.242;2023-11-21T10:02:49;101818.81;;;11.00;100.00
36692;BME280;22678;52.052;4.242;2023-11-21T10:05:16;101812.66;;;10.98;100.00
36692;BME280;22678;52.052;4.242;2023-11-21T10:07:43;101824.06;;;10.97;100.00
36692;BME280;22678;52.052;4.242;2023-11-21T10:10:10;101841.63;;;11.04;100.00
36692;BME280;22678;52.052;4.242;2023-11-21T10:12:35;101842.47;;;10.99;100.00
36692;BME280;22678;52.052;4.242;2023-11-21T10:15:07;101850.34;;;10.93;100.00
36692;BME280;22678;52.052;4.242;2023-11-21T10:17:35;101847.69;;;10.91;100.00
36692;BME280;22678;52.052;4.242;2023-11-21T10:20:08;101862.63;;;10.95;100.00
36692;BME280;22678;52.052;4.242;2023-11-21T10:22:39;101874.94;;;10.99;100.00
36692;BME280;22678;52.052;4.242;2023-11-21T10:25:06;101861.72;;;10.90;100.00
36692;BME280;22678;52.052;4.242;2023-11-21T10:27:33;101867.03;;;10.98;100.00
36692;BME280;22678;52.052;4.242;2023-11-21T10:30:03;101873.19;;;11.00;100.00
36692;BME280;22678;52.052;4.242;2023-11-21T10:32:33;101871.44;;;11.00;100.00
36692;BME280;22678;52.052;4.242;2023-11-21T10:34:58;101880.28;;;11.12;100.00
36692;BME280;22678;52.052;4.242;2023-11-21T10:37:32;101868.88;;;11.11;100.00
36692;BME280;22678;52.052;4.242;2023-11-21T10:39:58;101893.50;;;11.21;100.00
36692;BME280;22678;52.052;4.242;2023-11-21T10:42:24;101886.50;;;11.25;100.00
36692;BME280;22678;52.052;4.242;2023-11-21T10:44:49;101880.34;;;11.21;100.00
36692;BME280;22678;52.052;4.242;2023-11-21T10:47:16;101886.56;;;11.32;100.00
36692;BME280;22678;52.052;4.242;2023-11-21T10:49:44;101881.22;;;11.25;100.00
36692;BME280;22678;52.052;4.242;2023-11-21T10:52:10;101876.03;;;11.34;100.00
36692;BME280;22678;52.052;4.242;2023-11-21T10:54:42;101880.41;;;11.33;100.00
36692;BME280;22678;52.052;4.242;2023-11-21T10:57:08;101876.91;;;11.34;100.00
36692;BME280;22678;52.052;4.242;2023-11-21T10:59:34;101876.91;;;11.39;100.00
36692;BME280;22678;52.052;4.242;2023-11-21T11:02:01;101898.06;;;11.50;100.00
36692;BME280;22678;52.052;4.242;2023-11-21T11:04:28;101889.25;;;11.48;100.00
36692;BME280;22678;52.052;4.242;2023-11-21T11:06:57;101893.66;;;11.50;100.00
36692;BME280;22678;52.052;4.242;2023-11-21T11:09:27;101895.38;;;11.45;100.00
36692;BME280;22678;52.052;4.242;2023-11-21T11:11:52;101900.63;;;11.44;100.00
36692;BME280;22678;52.052;4.242;2023-11-21T11:14:19;101898.00;;;11.44;100.00
36692;BME280;22678;52.052;4.242;2023-11-21T11:16:45;101890.06;;;11.34;100.00
36692;BME280;22678;52.052;4.242;2023-11-21T11:19:10;101894.44;;;11.29;100.00
36692;BME280;22678;52.052;4.242;2023-11-21T11:21:38;101905.00;;;11.32;100.00
36692;BME280;22678;52.052;4.242;2023-11-21T11:34:32;101915.50;;;11.29;100.00
36692;BME280;22678;52.052;4.242;2023-11-21T11:37:01;101914.59;;;11.29;100.00
36692;BME280;22678;52.052;4.242;2023-11-21T11:39:34;101913.75;;;11.28;100.00
36692;BME280;22678;52.052;4.242;2023-11-21T11:42:03;101918.16;;;11.29;100.00
36692;BME280;22678;52.052;4.242;2023-11-21T11:47:27;101924.28;;;11.31;100.00
36692;BME280;22678;52.052;4.242;2023-11-21T11:52:49;101921.69;;;11.36;100.00
36692;BME280;22678;52.052;4.242;2023-11-21T11:55:16;101926.09;;;11.38;100.00
36692;BME280;22678;52.052;4.242;2023-11-21T11:57:51;101925.19;;;11.36;100.00
36692;BME280;22678;52.052;4.242;2023-11-21T12:00:20;101928.72;;;11.35;100.00
36692;BME280;22678;52.052;4.242;2023-11-21T12:03:02;101928.72;;;11.38;100.00
36692;BME280;22678;52.052;4.242;2023-11-21T12:05:29;101926.09;;;11.40;100.00
36692;BME280;22678;52.052;4.242;2023-11-21T12:08:00;101928.75;;;11.43;100.00
36692;BME280;22678;52.052;4.242;2023-11-21T12:10:29;101945.50;;;11.53;100.00
36692;BME280;22678;52.052;4.242;2023-11-21T12:12:56;101947.25;;;11.57;100.00
36692;BME280;22678;52.052;4.242;2023-11-21T12:15:23;101933.16;;;11.49;100.00
36692;BME280;22678;52.052;4.242;2023-11-21T12:17:49;101968.38;;;11.63;100.00
36692;BME280;22678;52.052;4.242;2023-11-21T12:20:18;101964.00;;;11.65;100.00
36692;BME280;22678;52.052;4.242;2023-11-21T12:22:46;101956.09;;;11.65;99.93
36692;BME280;22678;52.052;4.242;2023-11-21T12:25:19;101953.47;;;11.70;99.99
36692;BME280;22678;52.052;4.242;2023-11-21T12:27:54;101961.38;;;11.74;99.54
36692;BME280;22678;52.052;4.242;2023-11-21T12:30:22;101960.53;;;11.75;98.37
36692;BME280;22678;52.052;4.242;2023-11-21T12:32:49;101960.53;;;11.79;97.06
36692;BME280;22678;52.052;4.242;2023-11-21T12:35:17;101963.16;;;11.79;96.77
36692;BME280;22678;52.052;4.242;2023-11-21T12:37:45;101957.91;;;11.82;96.21
36692;BME280;22678;52.052;4.242;2023-11-21T12:40:12;101956.22;;;11.90;95.85
36692;BME280;22678;52.052;4.242;2023-11-21T12:42:47;101967.66;;;11.95;95.11
36692;BME280;22678;52.052;4.242;2023-11-21T12:47:43;101986.19;;;12.06;95.03
36692;BME280;22678;52.052;4.242;2023-11-21T12:50:10;101991.50;;;12.20;93.84
36692;BME280;22678;52.052;4.242;2023-11-21T12:52:46;101986.28;;;12.35;92.96
36692;BME280;22678;52.052;4.242;2023-11-21T12:55:18;101993.34;;;12.47;91.17
36692;BME280;22678;52.052;4.242;2023-11-21T12:57:45;101994.22;;;12.60;90.32
36692;BME280;22678;52.052;4.242;2023-11-21T13:00:12;101981.03;;;12.51;89.11
36692;BME280;22678;52.052;4.242;2023-11-21T13:02:50;101988.03;;;12.42;88.84
36692;BME280;22678;52.052;4.242;2023-11-21T13:05:33;101991.53;;;12.32;88.68
36692;BME280;22678;52.052;4.242;2023-11-21T13:08:00;101994.16;;;12.29;89.02
36692;BME280;22678;52.052;4.242;2023-11-21T13:10:29;102014.41;;;12.36;89.10
36692;BME280;22678;52.052;4.242;2023-11-21T13:12:56;102017.97;;;12.44;87.92
36692;BME280;22678;52.052;4.242;2023-11-21T13:15:26;102008.28;;;12.51;87.49
36692;BME280;22678;52.052;4.242;2023-11-21T13:17:53;102001.28;;;12.61;87.09
36692;BME280;22678;52.052;4.242;2023-11-21T13:20:19;102019.75;;;12.67;85.44
36692;BME280;22678;52.052;4.242;2023-11-21T13:22:55;102019.75;;;12.61;85.91